createdAt,value
2018-05-17T00:00:44.523Z,10.60
2018-05-17T00:03:12.072Z,10.40
2018-05-17T00:05:39.607Z,10.10
2018-05-17T00:08:07.161Z,9.90
2018-05-17T00:10:35.104Z,10.70
2018-05-17T00:13:02.664Z,9.40
2018-05-17T00:15:30.647Z,10.20
2018-05-17T00:17:58.206Z,10.40
2018-05-17T00:20:25.742Z,9.30
2018-05-17T00:22:54.029Z,10.20
2018-05-17T00:25:22.343Z,10.50
2018-05-17T00:30:18.769Z,10.30
2018-05-17T00:32:46.696Z,10.30
2018-05-17T00:35:14.240Z,10.70
2018-05-17T00:37:42.163Z,10.80
2018-05-17T00:40:09.735Z,10.80
2018-05-17T00:42:38.037Z,10.70
2018-05-17T00:45:06.317Z,10.70
2018-05-17T00:47:34.257Z,10.80
2018-05-17T00:50:02.187Z,10.80
2018-05-17T00:52:30.135Z,10.80
2018-05-17T00:54:58.416Z,10.80
2018-05-17T00:57:25.956Z,10.80
2018-05-17T00:59:54.251Z,10.90
2018-05-17T01:02:21.784Z,10.90
2018-05-17T01:04:50.095Z,10.90
2018-05-17T01:07:17.627Z,11.10
2018-05-17T01:09:45.161Z,10.90
2018-05-17T01:12:12.679Z,10.50
2018-05-17T01:14:40.987Z,10.90
2018-05-17T01:17:08.507Z,10.40
2018-05-17T01:22:05.669Z,11.00
2018-05-17T01:24:33.985Z,11.00
2018-05-17T01:27:01.540Z,11.60
2018-05-17T01:29:29.849Z,11.00
2018-05-17T01:31:57.407Z,11.30
2018-05-17T01:34:24.931Z,12.30
2018-05-17T01:37:04.363Z,11.40
2018-05-17T01:39:32.657Z,11.00
2018-05-17T01:42:00.189Z,10.90
2018-05-17T01:44:28.502Z,11.00
2018-05-17T01:46:56.804Z,11.00
2018-05-17T01:51:53.237Z,11.50
2018-05-17T01:54:20.785Z,11.10
2018-05-17T01:56:48.711Z,11.90
2018-05-17T01:59:16.272Z,10.80
2018-05-17T02:04:12.679Z,10.50
2018-05-17T02:06:40.222Z,11.30
2018-05-17T02:09:08.530Z,10.90
2018-05-17T02:11:36.079Z,11.30
2018-05-17T02:14:03.612Z,10.80
2018-05-17T02:16:31.168Z,10.60
2018-05-17T02:18:59.840Z,10.90
2018-05-17T02:21:27.390Z,11.30
2018-05-17T02:23:55.684Z,10.50
2018-05-17T02:26:23.596Z,10.90
2018-05-17T02:28:51.134Z,9.60
2018-05-17T02:31:18.660Z,11.10
2018-05-17T02:33:46.202Z,11.00
2018-05-17T02:36:14.529Z,10.90
2018-05-17T02:38:42.076Z,10.70
2018-05-17T02:41:10.380Z,10.90
2018-05-17T02:43:37.915Z,10.20
2018-05-17T02:46:05.431Z,10.30
2018-05-17T02:48:33.754Z,10.90
2018-05-17T02:51:01.292Z,12.20
2018-05-17T02:53:28.822Z,11.00
2018-05-17T02:55:57.146Z,11.30
2018-05-17T02:58:24.664Z,10.50
2018-05-17T03:00:53.351Z,10.90
2018-05-17T03:03:21.656Z,10.90
2018-05-17T03:05:49.208Z,10.50
2018-05-17T03:08:16.748Z,11.00
2018-05-17T03:10:45.062Z,10.80
2018-05-17T03:13:13.360Z,10.90
2018-05-17T03:15:40.886Z,11.10
2018-05-17T03:18:09.190Z,10.90
2018-05-17T03:20:38.174Z,11.20
2018-05-17T03:25:34.878Z,11.00
2018-05-17T03:28:03.383Z,10.90
2018-05-17T03:30:31.625Z,9.90
2018-05-17T03:32:59.943Z,10.90
2018-05-17T03:35:28.242Z,10.90
2018-05-17T03:37:55.796Z,11.30
2018-05-17T03:40:24.529Z,10.90
2018-05-17T03:42:52.097Z,10.80
2018-05-17T03:45:19.638Z,10.30
2018-05-17T03:47:48.176Z,10.80
2018-05-17T03:50:16.495Z,11.00
2018-05-17T03:55:13.250Z,11.10
2018-05-17T03:57:41.175Z,12.20
2018-05-17T04:00:08.720Z,11.50
2018-05-17T04:05:23.329Z,13.40
2018-05-17T04:07:52.147Z,11.70
2018-05-17T04:10:19.735Z,11.00
2018-05-17T04:12:47.647Z,10.70
2018-05-17T04:15:16.042Z,11.00
2018-05-17T04:17:43.539Z,11.30
2018-05-17T04:20:11.065Z,13.20
2018-05-17T04:23:52.985Z,11.40
2018-05-17T04:26:21.615Z,11.00
2018-05-17T04:28:49.293Z,11.30
2018-05-17T04:31:17.164Z,10.30
2018-05-17T04:33:45.431Z,10.90
2018-05-17T04:36:12.973Z,11.20
2018-05-17T04:38:40.471Z,11.00
2018-05-17T04:41:08.739Z,10.90
2018-05-17T04:43:36.642Z,11.30
2018-05-17T04:48:33.423Z,10.60
2018-05-17T04:51:00.933Z,11.30
2018-05-17T04:53:28.467Z,10.90
2018-05-17T04:55:55.961Z,11.30
2018-05-17T04:58:23.881Z,9.60
2018-05-17T05:00:51.397Z,12.40
2018-05-17T05:03:20.045Z,11.30
2018-05-17T05:05:47.963Z,10.60
2018-05-17T05:08:15.481Z,11.70
2018-05-17T05:10:43.001Z,10.80
2018-05-17T05:13:10.524Z,10.10
2018-05-17T05:15:38.845Z,11.50
2018-05-17T05:18:06.350Z,11.80
2018-05-17T05:20:33.876Z,11.60
2018-05-17T05:23:01.379Z,10.80
2018-05-17T05:25:29.653Z,11.60
2018-05-17T05:27:57.571Z,12.30
2018-05-17T05:30:25.099Z,11.90
2018-05-17T05:32:52.615Z,11.70
2018-05-17T05:35:20.123Z,13.30
2018-05-17T05:37:47.640Z,11.00
2018-05-17T05:40:15.158Z,10.70
2018-05-17T05:42:42.684Z,12.10
2018-05-17T05:45:10.973Z,12.10
2018-05-17T05:47:38.496Z,14.10
2018-05-17T05:50:05.989Z,11.60
2018-05-17T05:52:33.503Z,12.30
2018-05-17T05:55:01.042Z,11.00
2018-05-17T05:57:28.545Z,12.80
2018-05-17T05:59:56.844Z,12.20
2018-05-17T06:02:24.368Z,12.70
2018-05-17T06:04:51.882Z,11.60
2018-05-17T06:07:19.396Z,12.60
2018-05-17T06:09:47.688Z,12.30
2018-05-17T06:12:15.952Z,12.40
2018-05-17T06:14:44.234Z,12.40
2018-05-17T06:17:12.148Z,12.50
2018-05-17T06:19:39.652Z,12.00
2018-05-17T06:22:07.950Z,12.50
2018-05-17T06:24:35.458Z,12.40
2018-05-17T06:27:03.376Z,10.60
2018-05-17T06:29:31.651Z,12.40
2018-05-17T06:31:59.924Z,12.40
2018-05-17T06:34:27.840Z,12.20
2018-05-17T06:36:55.362Z,12.00
2018-05-17T06:39:22.888Z,13.20
2018-05-17T06:41:50.418Z,12.60
2018-05-17T06:44:17.946Z,12.40
2018-05-17T06:46:46.232Z,13.10
2018-05-17T06:49:13.746Z,12.90
2018-05-17T06:51:41.257Z,13.00
2018-05-17T06:54:08.778Z,14.10
2018-05-17T06:56:37.071Z,13.30
2018-05-17T06:59:04.597Z,13.50
2018-05-17T07:01:32.699Z,13.30
2018-05-17T07:04:01.801Z,13.10
2018-05-17T07:06:29.374Z,12.80
2018-05-17T07:08:57.266Z,13.30
2018-05-17T07:11:25.192Z,13.40
2018-05-17T07:13:52.810Z,13.00
2018-05-17T07:16:20.331Z,12.80
2018-05-17T07:18:48.056Z,13.30
2018-05-17T07:21:15.792Z,13.00
2018-05-17T07:23:43.318Z,11.60
2018-05-17T07:26:10.842Z,12.70
2018-05-17T07:28:39.103Z,13.10
2018-05-17T07:31:08.346Z,13.30
2018-05-17T07:33:35.864Z,12.90
2018-05-17T07:36:03.537Z,13.40
2018-05-17T07:38:31.829Z,13.70
2018-05-17T07:40:59.732Z,13.20
2018-05-17T07:43:29.488Z,14.00
2018-05-17T07:45:57.022Z,14.00
2018-05-17T07:48:24.941Z,13.90
2018-05-17T07:50:53.204Z,13.80
2018-05-17T07:53:21.479Z,13.80
2018-05-17T07:55:49.759Z,13.80
2018-05-17T07:58:18.065Z,13.70
2018-05-17T08:00:45.972Z,13.60
2018-05-17T08:03:13.469Z,13.50
2018-05-17T08:05:40.983Z,13.70
2018-05-17T08:08:08.889Z,14.00
2018-05-17T08:10:37.162Z,14.00
2018-05-17T08:13:05.434Z,14.00
2018-05-17T08:15:33.359Z,14.40
2018-05-17T08:18:00.977Z,13.50
2018-05-17T08:20:28.407Z,14.40
2018-05-17T08:22:56.685Z,13.90
2018-05-17T08:25:24.957Z,13.90
2018-05-17T08:27:52.501Z,12.70
2018-05-17T08:30:19.995Z,13.40
2018-05-17T08:32:48.281Z,13.80
2018-05-17T08:35:16.565Z,13.80
2018-05-17T08:37:44.498Z,13.10
2018-05-17T08:40:12.001Z,13.90
2018-05-17T08:42:39.595Z,13.60
2018-05-17T08:45:07.439Z,13.30
2018-05-17T08:47:34.957Z,11.80
2018-05-17T08:50:03.239Z,13.80
2018-05-17T08:52:31.503Z,13.70
2018-05-17T08:54:59.028Z,12.80
2018-05-17T08:57:26.539Z,13.70
2018-05-17T08:59:54.811Z,13.70
2018-05-17T09:02:22.728Z,13.70
2018-05-17T09:04:50.277Z,13.80
2018-05-17T09:07:17.772Z,13.90
2018-05-17T09:09:45.283Z,13.80
2018-05-17T09:12:12.803Z,14.70
2018-05-17T09:14:41.070Z,14.00
2018-05-17T09:17:08.588Z,13.30
2018-05-17T09:19:36.096Z,14.20
2018-05-17T09:22:04.376Z,14.10
2018-05-17T09:24:32.706Z,14.20
2018-05-17T09:27:00.943Z,14.20
2018-05-17T09:29:29.216Z,14.10
2018-05-17T09:31:57.476Z,14.10
2018-05-17T09:34:24.989Z,14.10
2018-05-17T09:36:52.487Z,14.10
2018-05-17T09:39:20.005Z,14.20
2018-05-17T09:41:47.598Z,15.30
2018-05-17T09:44:15.208Z,13.70
2018-05-17T09:46:42.830Z,13.70
2018-05-17T09:49:11.169Z,14.00
2018-05-17T09:51:38.673Z,13.20
2018-05-17T09:54:06.178Z,14.10
2018-05-17T09:56:33.698Z,14.10
2018-05-17T09:59:01.962Z,14.30
2018-05-17T10:01:29.483Z,14.50
2018-05-17T10:03:56.982Z,13.10
2018-05-17T10:06:25.277Z,14.50
2018-05-17T10:08:53.603Z,14.70
2018-05-17T10:11:21.796Z,14.80
2018-05-17T10:13:50.069Z,14.90
2018-05-17T10:16:18.367Z,15.00
2018-05-17T10:18:45.942Z,15.00
2018-05-17T10:21:14.262Z,15.40
2018-05-17T10:23:42.194Z,15.40
2018-05-17T10:26:10.474Z,15.50
2018-05-17T10:28:38.463Z,14.20
2018-05-17T10:31:05.990Z,15.30
2018-05-17T10:33:34.290Z,15.90
2018-05-17T10:36:01.785Z,15.70
2018-05-17T10:38:29.304Z,16.50
2018-05-17T10:40:56.818Z,15.50
2018-05-17T10:43:24.316Z,17.00
2018-05-17T10:45:51.887Z,16.00
2018-05-17T10:48:19.759Z,17.00
2018-05-17T10:50:47.274Z,16.20
2018-05-17T10:53:14.777Z,16.30
2018-05-17T10:55:42.307Z,17.00
2018-05-17T10:58:10.204Z,16.80
2018-05-17T11:00:38.120Z,16.60
2018-05-17T11:03:05.631Z,16.30
2018-05-17T11:05:33.138Z,16.80
2018-05-17T11:08:01.419Z,16.50
2018-05-17T11:10:28.922Z,16.30
2018-05-17T11:12:56.440Z,17.00
2018-05-17T11:15:24.349Z,16.20
2018-05-17T11:17:51.872Z,15.20
2018-05-17T11:20:19.793Z,16.70
2018-05-17T11:22:47.322Z,15.60
2018-05-17T11:25:15.218Z,17.00
2018-05-17T11:27:42.716Z,16.30
2018-05-17T11:30:10.230Z,15.80
2018-05-17T11:32:38.136Z,15.80
2018-05-17T11:35:05.663Z,15.20
2018-05-17T11:37:33.164Z,15.30
2018-05-17T11:40:00.692Z,15.00
2018-05-17T11:42:29.306Z,14.80
2018-05-17T11:44:57.212Z,15.00
2018-05-17T11:47:24.739Z,14.60
2018-05-17T11:49:52.642Z,14.70
2018-05-17T11:52:20.170Z,14.50
2018-05-17T11:54:48.467Z,14.60
2018-05-17T11:57:15.991Z,13.80
2018-05-17T11:59:45.013Z,14.60
2018-05-17T12:02:13.295Z,14.50
2018-05-17T12:04:41.571Z,14.90
2018-05-17T12:07:09.865Z,14.50
2018-05-17T12:09:37.779Z,14.50
2018-05-17T12:12:05.334Z,14.70
2018-05-17T12:14:33.292Z,14.50
2018-05-17T12:17:01.117Z,14.40
2018-05-17T12:19:28.344Z,14.30
2018-05-17T12:21:55.870Z,14.90
2018-05-17T12:24:23.389Z,14.40
2018-05-17T12:26:51.368Z,13.70
2018-05-17T12:29:19.662Z,14.60
2018-05-17T12:31:47.262Z,14.70
2018-05-17T12:34:15.468Z,15.00
2018-05-17T12:36:42.992Z,15.20
2018-05-17T12:39:10.904Z,14.70
2018-05-17T12:41:38.431Z,14.40
2018-05-17T12:44:06.724Z,15.00
2018-05-17T12:46:35.009Z,15.10
2018-05-17T12:49:02.546Z,14.50
2018-05-17T12:51:30.061Z,14.30
2018-05-17T12:53:57.573Z,15.40
2018-05-17T12:56:25.861Z,14.70
2018-05-17T12:58:53.399Z,15.20
2018-05-17T13:01:21.686Z,15.30
2018-05-17T13:03:49.990Z,15.40
2018-05-17T13:06:17.498Z,16.20
2018-05-17T13:08:45.027Z,14.60
2018-05-17T13:11:12.537Z,14.80
2018-05-17T13:13:40.825Z,15.40
2018-05-17T13:16:08.727Z,15.50
2018-05-17T13:18:36.660Z,15.50
2018-05-17T13:21:04.564Z,14.70
2018-05-17T13:23:32.075Z,16.30
2018-05-17T13:26:00.357Z,15.80
2018-05-17T13:28:28.625Z,15.90
2018-05-17T13:30:56.923Z,16.20
2018-05-17T13:33:24.437Z,16.90
2018-05-17T13:35:51.961Z,16.60
2018-05-17T13:38:20.258Z,16.70
2018-05-17T13:40:47.779Z,15.30
2018-05-17T13:43:16.057Z,16.90
2018-05-17T13:45:43.871Z,17.10
2018-05-17T13:48:11.399Z,15.90
2018-05-17T13:50:38.899Z,16.10
2018-05-17T13:53:06.434Z,18.20
2018-05-17T13:55:34.730Z,17.00
2018-05-17T13:58:02.253Z,17.10
2018-05-17T14:00:29.774Z,16.80
2018-05-17T14:02:58.074Z,17.40
2018-05-17T14:05:25.600Z,17.20
2018-05-17T14:07:53.105Z,17.60
2018-05-17T14:10:21.020Z,18.30
2018-05-17T14:12:50.039Z,17.70
2018-05-17T14:15:18.010Z,16.90
2018-05-17T14:17:45.934Z,17.80
2018-05-17T14:20:13.498Z,17.30
2018-05-17T14:22:41.022Z,18.20
2018-05-17T14:25:08.549Z,17.50
2018-05-17T14:27:36.864Z,17.90
2018-05-17T14:30:04.364Z,17.80
2018-05-17T14:32:31.898Z,17.90
2018-05-17T14:34:59.442Z,17.90
2018-05-17T14:37:26.968Z,15.60
2018-05-17T14:39:55.246Z,17.00
2018-05-17T14:42:23.565Z,16.70
2018-05-17T14:44:51.091Z,16.50
2018-05-17T14:47:19.057Z,15.80
2018-05-17T14:49:47.355Z,16.30
2018-05-17T14:52:14.887Z,16.30
2018-05-17T14:54:43.222Z,15.70
2018-05-17T14:57:10.759Z,14.90
2018-05-17T14:59:38.304Z,15.00
2018-05-17T15:02:05.834Z,14.10
2018-05-17T15:04:34.895Z,13.30
2018-05-17T15:07:02.784Z,13.00
2018-05-17T15:09:30.284Z,12.30
2018-05-17T15:11:58.224Z,12.50
2018-05-17T15:14:26.524Z,12.80
2018-05-17T15:16:54.068Z,13.00
2018-05-17T15:19:21.996Z,12.80
2018-05-17T15:21:49.546Z,12.00
2018-05-17T15:24:17.833Z,12.80
2018-05-17T15:26:45.437Z,13.20
2018-05-17T15:29:13.698Z,12.90
2018-05-17T15:31:42.001Z,12.90
2018-05-17T15:34:09.534Z,13.30
2018-05-17T15:36:37.462Z,13.20
2018-05-17T15:39:07.874Z,12.90
2018-05-17T15:41:35.490Z,12.90
2018-05-17T15:44:03.330Z,13.10
2018-05-17T15:46:32.579Z,13.10
2018-05-17T15:49:01.307Z,13.30
2018-05-17T15:51:29.290Z,13.60
2018-05-17T15:53:56.849Z,13.10
2018-05-17T15:56:25.353Z,15.30
2018-05-17T15:58:53.640Z,13.60
2018-05-17T16:01:21.946Z,13.70
2018-05-17T16:03:49.858Z,14.30
2018-05-17T16:06:17.418Z,13.60
2018-05-17T16:08:45.725Z,13.90
2018-05-17T16:11:14.044Z,14.00
2018-05-17T16:13:41.572Z,13.70
2018-05-17T16:16:09.143Z,14.60
2018-05-17T16:18:36.693Z,14.50
2018-05-17T16:21:04.248Z,14.00
2018-05-17T16:23:32.549Z,14.00
2018-05-17T16:26:00.439Z,14.00
2018-05-17T16:28:28.003Z,14.30
2018-05-17T16:30:55.533Z,14.10
2018-05-17T16:33:23.080Z,14.20
2018-05-17T16:35:50.765Z,13.60
2018-05-17T16:38:18.721Z,13.80
2018-05-17T16:40:47.042Z,13.80
2018-05-17T16:43:14.966Z,13.70
2018-05-17T16:45:42.520Z,13.50
2018-05-17T16:48:10.105Z,13.80
2018-05-17T16:50:38.411Z,13.80
2018-05-17T16:53:06.364Z,13.80
2018-05-17T16:55:33.855Z,13.20
2018-05-17T16:58:02.318Z,13.70
2018-05-17T17:00:30.670Z,13.80
2018-05-17T17:02:59.321Z,13.80
2018-05-17T17:05:27.629Z,13.70
2018-05-17T17:07:55.963Z,13.80
2018-05-17T17:10:25.010Z,14.40
2018-05-17T17:12:53.905Z,14.20
2018-05-17T17:15:22.289Z,13.90
2018-05-17T17:17:51.253Z,13.40
2018-05-17T17:20:18.799Z,14.40
2018-05-17T17:22:46.643Z,13.10
2018-05-17T17:25:14.972Z,13.70
2018-05-17T17:27:42.510Z,13.00
2018-05-17T17:30:11.540Z,13.70
2018-05-17T17:32:39.099Z,14.80
2018-05-17T17:35:07.066Z,13.70
2018-05-17T17:37:35.271Z,13.30
2018-05-17T17:40:03.760Z,12.60
2018-05-17T17:42:31.823Z,14.50
2018-05-17T17:44:59.849Z,14.00
2018-05-17T17:47:27.369Z,13.60
2018-05-17T17:49:55.810Z,13.60
2018-05-17T17:52:23.648Z,13.80
2018-05-17T17:54:51.193Z,12.80
2018-05-17T17:57:19.913Z,13.50
2018-05-17T17:59:47.566Z,13.50
2018-05-17T18:02:16.647Z,13.10
2018-05-17T18:04:44.224Z,14.60
2018-05-17T18:07:11.892Z,14.80
2018-05-17T18:09:39.828Z,13.60
2018-05-17T18:12:07.412Z,13.30
2018-05-17T18:14:36.342Z,13.30
2018-05-17T18:17:05.354Z,13.50
2018-05-17T18:19:34.362Z,13.70
2018-05-17T18:22:01.916Z,12.90
2018-05-17T18:24:30.822Z,13.40
2018-05-17T18:26:58.409Z,13.30
2018-05-17T18:29:26.343Z,13.60
2018-05-17T18:31:55.958Z,13.30
2018-05-17T18:34:24.764Z,13.10
2018-05-17T18:36:52.755Z,13.00
2018-05-17T18:39:20.672Z,13.70
2018-05-17T18:41:48.767Z,13.10
2018-05-17T18:44:16.326Z,12.50
2018-05-17T18:46:43.874Z,13.50
2018-05-17T18:49:12.645Z,12.90
2018-05-17T18:51:42.193Z,13.00
2018-05-17T18:54:11.585Z,13.00
2018-05-17T18:59:08.972Z,12.70
2018-05-17T19:01:39.020Z,12.80
2018-05-17T19:04:08.400Z,12.80
2018-05-17T19:06:36.872Z,12.30
2018-05-17T19:09:06.903Z,12.50
2018-05-17T19:11:34.844Z,12.60
2018-05-17T19:14:03.466Z,12.40
2018-05-17T19:16:33.863Z,12.50
2018-05-17T19:19:01.449Z,12.30
2018-05-17T19:23:59.264Z,12.50
2018-05-17T19:26:27.795Z,12.40
2018-05-17T19:28:55.758Z,11.30
2018-05-17T19:33:52.718Z,11.80
2018-05-17T19:36:20.875Z,12.30
2018-05-17T19:38:52.319Z,12.00
2018-05-17T19:41:21.197Z,12.30
2018-05-17T19:46:19.841Z,12.50
2018-05-17T19:48:48.525Z,11.90
2018-05-17T19:51:17.167Z,12.20
2018-05-17T19:53:46.731Z,12.20
2018-05-17T19:56:14.383Z,12.00
2018-05-17T19:58:44.399Z,12.20
2018-05-17T20:01:13.121Z,12.20
2018-05-17T20:03:42.845Z,13.40
2018-05-17T20:06:12.313Z,12.20
2018-05-17T20:08:41.586Z,13.00
2018-05-17T20:11:09.129Z,11.80
2018-05-17T20:13:38.876Z,12.20
2018-05-17T20:16:07.181Z,12.20
2018-05-17T20:18:34.747Z,11.50
2018-05-17T20:21:02.811Z,13.10
2018-05-17T20:23:30.824Z,12.60
2018-05-17T20:25:59.157Z,12.30
2018-05-17T20:28:26.751Z,11.80
2018-05-17T20:30:55.059Z,12.30
2018-05-17T20:33:23.386Z,12.30
2018-05-17T20:38:20.641Z,12.30
2018-05-17T20:40:48.552Z,12.30
2018-05-17T20:43:17.101Z,12.40
2018-05-17T20:45:44.684Z,11.10
2018-05-17T20:48:12.986Z,12.40
2018-05-17T20:50:40.538Z,12.80
2018-05-17T20:53:09.421Z,12.50
2018-05-17T20:55:37.388Z,12.50
2018-05-17T20:58:05.725Z,12.60
2018-05-17T21:00:33.264Z,12.40
2018-05-17T21:03:00.763Z,13.20
2018-05-17T21:05:29.834Z,12.50
2018-05-17T21:07:57.421Z,12.20
2018-05-17T21:10:26.619Z,12.50
2018-05-17T21:12:54.232Z,12.50
2018-05-17T21:15:21.747Z,12.80
2018-05-17T21:17:50.034Z,12.70
2018-05-17T21:20:18.711Z,12.70
2018-05-17T21:22:47.789Z,12.80
2018-05-17T21:25:15.337Z,12.80
2018-05-17T21:27:42.881Z,12.60
2018-05-17T21:30:10.404Z,11.40
2018-05-17T21:32:38.700Z,12.80
2018-05-17T21:35:06.208Z,12.20
2018-05-17T21:37:34.539Z,12.90
2018-05-17T21:40:02.062Z,12.30
2018-05-17T21:42:30.386Z,12.70
2018-05-17T21:44:58.741Z,12.90
2018-05-17T21:47:26.952Z,12.90
2018-05-17T21:52:24.128Z,12.90
2018-05-17T21:54:51.670Z,12.30
2018-05-17T21:57:19.178Z,12.20
2018-05-17T21:59:47.099Z,13.00
2018-05-17T22:02:15.384Z,12.70
2018-05-17T22:04:43.308Z,13.40
2018-05-17T22:07:11.584Z,12.70
2018-05-17T22:09:40.230Z,12.60
2018-05-17T22:12:07.750Z,13.20
2018-05-17T22:14:35.273Z,12.40
2018-05-17T22:17:03.566Z,13.20
2018-05-17T22:19:31.836Z,12.70
2018-05-17T22:22:00.144Z,12.70
2018-05-17T22:24:27.654Z,12.10
2018-05-17T22:26:55.934Z,12.80
2018-05-17T22:29:23.458Z,14.00
2018-05-17T22:31:51.736Z,12.70
2018-05-17T22:34:19.244Z,13.20
2018-05-17T22:39:15.626Z,12.70
2018-05-17T22:41:43.536Z,12.50
2018-05-17T22:44:11.454Z,12.60
2018-05-17T22:46:38.967Z,13.00
2018-05-17T22:49:06.482Z,12.60
2018-05-17T22:51:34.009Z,13.10
2018-05-17T22:54:01.922Z,12.70
2018-05-17T22:56:41.466Z,14.10
2018-05-17T22:59:09.743Z,12.30
2018-05-17T23:01:37.360Z,12.70
2018-05-17T23:04:05.642Z,12.30
2018-05-17T23:06:33.947Z,12.30
2018-05-17T23:09:01.468Z,9.60
2018-05-17T23:11:29.741Z,12.20
2018-05-17T23:13:57.694Z,11.40
2018-05-17T23:16:25.605Z,12.30
2018-05-17T23:18:54.652Z,12.30
2018-05-17T23:21:22.162Z,13.10
2018-05-17T23:23:49.678Z,12.10
2018-05-17T23:26:17.184Z,12.60
2018-05-17T23:28:45.477Z,12.30
2018-05-17T23:31:12.991Z,11.70
2018-05-17T23:33:40.928Z,12.60
2018-05-17T23:36:08.536Z,12.30
2018-05-17T23:38:36.053Z,13.10
2018-05-17T23:44:02.563Z,12.20
2018-05-17T23:46:30.835Z,12.20
2018-05-17T23:48:58.345Z,13.00
2018-05-17T23:51:27.369Z,12.10
2018-05-17T23:53:55.650Z,12.10
2018-05-17T23:56:23.934Z,12.00
2018-05-17T23:58:51.836Z,12.00
